Time;durP1;ratioP1;P1;durP2;ratioP2;P2;SDS_P1;SDS_P2;PMS_P1;PMS_P2;Temp;Humidity;BMP_temperature;BMP_pressure;BME280_temperature;BME280_humidity;BME280_pressure;Samples;Min_cycle;Max_cycle;Signal;HPM_P1;HPM_P2
2023/07/27 00:00:08;;;;;;;9.00;5.90;;;13.40;99.90;;;;;;5025858;28;20112;-46
2023/07/27 00:02:35;;;;;;;10.43;6.10;;;13.30;99.90;;;;;;5026802;28;20118;-48
2023/07/27 00:05:01;;;;;;;9.43;5.72;;;13.30;99.90;;;;;;5026751;28;20045;-47
2023/07/27 00:07:27;;;;;;;9.90;5.93;;;13.30;99.90;;;;;;5027002;28;20053;-47
2023/07/27 00:09:52;;;;;;;9.20;6.00;;;13.20;99.90;;;;;;5027383;28;20501;-49
2023/07/27 00:12:18;;;;;;;9.75;5.85;;;13.30;99.90;;;;;;5027481;28;20044;-47
2023/07/27 00:14:44;;;;;;;10.23;6.15;;;13.20;99.90;;;;;;5029051;28;20064;-48
2023/07/27 00:17:09;;;;;;;9.88;6.22;;;13.20;99.90;;;;;;5033344;28;20048;-48
2023/07/27 00:19:35;;;;;;;10.02;6.07;;;13.20;99.90;;;;;;5027098;28;20051;-47
2023/07/27 00:22:00;;;;;;;9.38;6.47;;;13.20;99.90;;;;;;5026735;28;20500;-48
2023/07/27 00:24:26;;;;;;;9.85;6.03;;;13.10;99.90;;;;;;5026445;28;20050;-48
2023/07/27 00:26:52;;;;;;;8.18;5.45;;;13.20;99.90;;;;;;5027054;28;20439;-46
2023/07/27 00:29:19;;;;;;;8.52;5.82;;;13.10;99.90;;;;;;5026012;28;20041;-48
2023/07/27 00:31:45;;;;;;;10.70;6.07;;;13.10;99.90;;;;;;5026496;28;20057;-49
2023/07/27 00:34:10;;;;;;;9.90;6.28;;;13.10;99.90;;;;;;5026491;28;20068;-47
2023/07/27 00:36:36;;;;;;;11.23;6.88;;;13.10;99.90;;;;;;5027049;28;20059;-48
2023/07/27 00:39:02;;;;;;;10.27;7.07;;;13.10;99.90;;;;;;5024945;28;20041;-48
2023/07/27 00:41:28;;;;;;;12.27;7.15;;;13.00;99.90;;;;;;5026480;28;20053;-49
2023/07/27 00:43:53;;;;;;;12.07;7.53;;;13.10;99.90;;;;;;5025553;28;20049;-53
2023/07/27 00:46:19;;;;;;;726.50;671.50;;;13.10;99.90;;;;;;5025954;28;20087;-47
2023/07/27 00:48:45;;;;;;;;;;;13.10;99.90;;;;;;5026687;28;20721;-47
2023/07/27 00:51:11;;;;;;;13.02;8.07;;;13.40;99.90;;;;;;5025207;28;20779;-50
2023/07/27 00:53:37;;;;;;;;;;;13.30;99.90;;;;;;5027416;28;20456;-47
2023/07/27 00:56:03;;;;;;;;;;;13.20;99.90;;;;;;5025387;28;25111;-47
2023/07/27 00:58:28;;;;;;;;;;;13.30;99.90;;;;;;5023975;28;25117;-47
2023/07/27 01:00:53;;;;;;;;;;;13.30;99.90;;;;;;5023256;28;25101;-47
2023/07/27 01:03:19;;;;;;;;;;;13.30;99.90;;;;;;5022960;28;25067;-47
2023/07/27 01:05:45;;;;;;;12.45;8.40;;;13.40;99.90;;;;;;5025946;28;25127;-47
2023/07/27 01:08:11;;;;;;;12.60;7.63;;;13.30;99.90;;;;;;5041577;28;20152;-47
2023/07/27 01:11:00;;;;;;;10.70;7.88;;;13.20;99.90;;;;;;5026166;28;20120;-53
2023/07/27 01:13:43;;;;;;;13.07;8.55;;;13.20;99.90;;;;;;5026037;28;20041;-48
2023/07/27 01:16:30;;;;;;;11.82;8.35;;;13.10;99.90;;;;;;5035041;28;20094;-48
2023/07/27 01:19:22;;;;;;;10.45;8.20;;;13.20;99.90;;;;;;5046358;28;20056;-47
2023/07/27 01:21:54;;;;;;;11.95;7.32;;;13.10;99.90;;;;;;5045095;28;20049;-49
2023/07/27 01:24:29;;;;;;;482.55;312.98;;;13.10;99.90;;;;;;5045025;28;20053;-47
2023/07/27 01:27:08;;;;;;;12.02;7.70;;;13.10;99.90;;;;;;5048699;28;20057;-50
2023/07/27 01:29:40;;;;;;;11.00;7.32;;;13.10;99.90;;;;;;5043773;28;20416;-47
2023/07/27 01:32:09;;;;;;;11.68;6.95;;;13.10;99.90;;;;;;5039167;28;20049;-48
2023/07/27 01:34:38;;;;;;;12.93;8.23;;;13.00;99.90;;;;;;5030049;28;20092;-46
2023/07/27 01:37:08;;;;;;;13.27;7.70;;;13.10;99.90;;;;;;5028664;28;20096;-47
2023/07/27 01:39:40;;;;;;;11.57;7.38;;;13.00;99.90;;;;;;5030341;28;20037;-47
2023/07/27 01:42:08;;;;;;;10.10;7.28;;;13.00;99.90;;;;;;5030065;28;20396;-50
2023/07/27 01:44:36;;;;;;;11.30;7.65;;;13.00;99.90;;;;;;5029525;28;20709;-48
2023/07/27 01:47:03;;;;;;;11.75;8.02;;;13.30;99.90;;;;;;5029628;28;20133;-47
2023/07/27 01:49:29;;;;;;;;;;;13.00;99.90;;;;;;5028390;28;20057;-49
2023/07/27 01:51:57;;;;;;;13.50;8.30;;;13.00;99.90;;;;;;5028560;28;20418;-47
2023/07/27 01:54:23;;;;;;;13.02;7.68;;;13.20;99.90;;;;;;5029936;28;20053;-48
2023/07/27 01:56:50;;;;;;;11.00;7.55;;;13.20;99.90;;;;;;5029417;28;20037;-47
2023/07/27 01:59:17;;;;;;;12.30;7.43;;;13.20;99.90;;;;;;5028740;28;20049;-48
2023/07/27 02:01:43;;;;;;;10.23;7.18;;;13.20;99.90;;;;;;5029667;28;20045;-48
2023/07/27 02:04:09;;;;;;;9.93;7.57;;;13.20;99.90;;;;;;5029324;28;20049;-50
2023/07/27 02:06:34;;;;;;;9.40;6.55;;;13.30;99.90;;;;;;5029054;28;20044;-47
2023/07/27 02:09:00;;;;;;;9.07;7.20;;;13.40;99.90;;;;;;5028227;28;20053;-46
2023/07/27 02:11:27;;;;;;;10.60;7.25;;;13.30;99.90;;;;;;5029242;28;20049;-47
2023/07/27 02:14:12;;;;;;;10.38;6.97;;;13.20;99.90;;;;;;5030122;28;20045;-50
2023/07/27 02:16:56;;;;;;;12.75;7.90;;;13.30;99.90;;;;;;5037600;28;20526;-48
2023/07/27 02:19:29;;;;;;;12.63;7.53;;;13.50;99.90;;;;;;5029057;28;20049;-47
2023/07/27 02:21:55;;;;;;;11.93;7.28;;;13.30;99.90;;;;;;5028880;28;20463;-48
2023/07/27 02:24:22;;;;;;;9.65;7.00;;;13.30;99.90;;;;;;5027959;28;20045;-47
2023/07/27 02:26:48;;;;;;;11.15;7.55;;;13.30;99.90;;;;;;5029368;28;20099;-49
2023/07/27 02:29:13;;;;;;;9.82;6.95;;;13.30;99.90;;;;;;5028571;28;20049;-46
2023/07/27 02:31:39;;;;;;;9.93;7.15;;;13.30;99.90;;;;;;5029408;28;20515;-47
2023/07/27 02:34:05;;;;;;;10.70;6.97;;;13.30;99.90;;;;;;5028982;28;20042;-48
2023/07/27 02:36:31;;;;;;;9.65;7.10;;;13.40;99.90;;;;;;5028740;28;20938;-49
2023/07/27 02:38:56;;;;;;;11.80;7.47;;;13.40;99.90;;;;;;5028614;28;20053;-47
2023/07/27 02:41:22;;;;;;;10.15;7.50;;;13.40;99.90;;;;;;5043971;28;20048;-47
2023/07/27 02:43:47;;;;;;;10.48;7.53;;;13.50;99.90;;;;;;5028583;28;20041;-50
2023/07/27 02:46:13;;;;;;;11.55;7.43;;;13.40;99.90;;;;;;5027639;28;20052;-49
2023/07/27 02:48:39;;;;;;;9.55;7.10;;;13.40;99.90;;;;;;5028730;28;20408;-49
2023/07/27 02:51:05;;;;;;;10.25;6.97;;;13.50;99.90;;;;;;5028913;28;20045;-48
2023/07/27 02:53:30;;;;;;;9.48;7.25;;;13.50;99.90;;;;;;5029242;28;20120;-47
2023/07/27 02:56:03;;;;;;;10.73;7.70;;;13.50;99.90;;;;;;5029043;28;20552;-48
2023/07/27 02:58:29;;;;;;;10.00;7.22;;;13.50;99.90;;;;;;5028527;28;20045;-47
2023/07/27 03:00:57;;;;;;;10.38;7.35;;;13.50;99.90;;;;;;5027653;28;20049;-51
2023/07/27 03:03:23;;;;;;;12.23;7.90;;;13.50;99.90;;;;;;5028885;28;20453;-50
2023/07/27 03:05:56;;;;;;;10.15;7.68;;;13.50;99.90;;;;;;5027711;28;20096;-48
2023/07/27 03:08:22;;;;;;;12.10;7.28;;;13.50;99.90;;;;;;5026600;28;20046;-48
2023/07/27 03:10:47;;;;;;;10.55;7.32;;;13.50;99.90;;;;;;5028467;28;20064;-47
2023/07/27 03:13:13;;;;;;;13.52;7.70;;;13.50;99.90;;;;;;5028329;28;20547;-48
2023/07/27 03:15:40;;;;;;;12.40;7.07;;;13.50;99.90;;;;;;5038781;28;20079;-50
2023/07/27 03:18:06;;;;;;;10.10;7.93;;;13.50;99.90;;;;;;5028219;28;20053;-50
2023/07/27 03:20:40;;;;;;;11.25;7.53;;;13.50;99.90;;;;;;5027307;28;20522;-47
2023/07/27 03:23:08;;;;;;;15.23;6.97;;;13.60;99.90;;;;;;5027717;28;20107;-49
2023/07/27 03:25:35;;;;;;;10.93;7.63;;;13.60;99.90;;;;;;5028343;28;20077;-46
2023/07/27 03:28:06;;;;;;;12.25;7.53;;;13.60;99.90;;;;;;5026767;28;20060;-46
2023/07/27 03:30:33;;;;;;;10.18;7.28;;;13.60;99.90;;;;;;5026699;28;20083;-47
2023/07/27 03:32:59;;;;;;;10.15;7.13;;;13.60;99.90;;;;;;5027427;28;20544;-51
2023/07/27 03:35:25;;;;;;;10.15;7.60;;;13.60;99.90;;;;;;5027534;28;20129;-47
2023/07/27 03:37:51;;;;;;;11.68;7.68;;;13.70;99.90;;;;;;5027907;28;20068;-48
2023/07/27 03:40:18;;;;;;;11.57;7.50;;;13.80;99.90;;;;;;5027358;28;20120;-47
2023/07/27 03:42:44;;;;;;;9.52;7.68;;;13.70;99.90;;;;;;5026766;28;20053;-51
2023/07/27 03:45:10;;;;;;;10.60;7.50;;;13.70;99.90;;;;;;5026451;28;20124;-51
2023/07/27 03:47:36;;;;;;;10.00;7.50;;;13.80;99.90;;;;;;5025946;28;20048;-50
2023/07/27 03:50:01;;;;;;;9.48;6.80;;;13.90;99.90;;;;;;5027162;28;20042;-47
2023/07/27 03:52:27;;;;;;;10.02;7.32;;;13.90;99.90;;;;;;5027415;28;20455;-50
2023/07/27 03:54:53;;;;;;;9.85;7.45;;;13.90;99.90;;;;;;5027594;28;20040;-47
2023/07/27 03:57:18;;;;;;;10.65;7.25;;;13.90;99.90;;;;;;5027762;28;20128;-50
2023/07/27 03:59:44;;;;;;;11.75;7.40;;;13.90;99.90;;;;;;5026213;28;20084;-49
2023/07/27 04:02:09;;;;;;;8.85;7.35;;;13.90;99.90;;;;;;5026561;28;20053;-48
2023/07/27 04:04:35;;;;;;;9.93;7.30;;;13.90;99.90;;;;;;5027201;28;20046;-47
2023/07/27 04:07:01;;;;;;;10.55;7.18;;;14.00;99.90;;;;;;5027062;28;20056;-50
2023/07/27 04:09:26;;;;;;;9.52;6.68;;;13.90;99.90;;;;;;5026553;28;20068;-47
2023/07/27 04:11:52;;;;;;;12.98;7.70;;;13.90;99.90;;;;;;5027070;28;20048;-47
2023/07/27 04:14:18;;;;;;;9.40;6.93;;;13.90;99.90;;;;;;5028305;28;20462;-49
2023/07/27 04:16:43;;;;;;;10.63;7.45;;;13.90;99.90;;;;;;5036023;28;20490;-47
2023/07/27 04:19:09;;;;;;;11.50;7.32;;;13.90;99.90;;;;;;5027229;28;20041;-48
2023/07/27 04:21:35;;;;;;;10.00;7.20;;;13.90;99.90;;;;;;5026768;28;20057;-49
2023/07/27 04:24:01;;;;;;;9.57;7.13;;;13.90;99.90;;;;;;5026508;28;20068;-47
2023/07/27 04:26:26;;;;;;;11.57;7.10;;;13.90;99.90;;;;;;5025162;28;20052;-48
2023/07/27 04:28:52;;;;;;;11.82;7.75;;;13.90;99.90;;;;;;5026179;28;20518;-46
2023/07/27 04:31:17;;;;;;;12.90;7.72;;;13.90;99.90;;;;;;5026672;28;20472;-47
2023/07/27 04:33:43;;;;;;;10.93;7.60;;;13.90;99.90;;;;;;5026611;28;20037;-48
2023/07/27 04:36:09;;;;;;;10.85;7.63;;;13.90;99.90;;;;;;5025676;28;20049;-47
2023/07/27 04:38:34;;;;;;;10.20;6.65;;;13.90;99.90;;;;;;5025210;28;20041;-47
2023/07/27 04:41:00;;;;;;;11.48;8.38;;;13.80;99.90;;;;;;5026719;28;20048;-48
2023/07/27 04:43:25;;;;;;;10.40;7.60;;;13.80;99.90;;;;;;5026295;28;20056;-48
2023/07/27 04:45:51;;;;;;;12.27;7.78;;;13.80;99.90;;;;;;5025447;28;20060;-47
2023/07/27 04:48:17;;;;;;;11.15;7.88;;;13.80;99.90;;;;;;5027177;28;20051;-48
2023/07/27 04:50:42;;;;;;;12.50;7.80;;;13.80;99.90;;;;;;5025931;28;20448;-48
2023/07/27 04:53:08;;;;;;;10.70;8.02;;;13.90;99.90;;;;;;5026928;28;20042;-48
2023/07/27 04:55:33;;;;;;;12.95;7.93;;;13.80;99.90;;;;;;5024860;28;20519;-46
2023/07/27 04:57:59;;;;;;;11.00;8.13;;;13.80;99.90;;;;;;5025161;28;20050;-47
2023/07/27 05:00:25;;;;;;;12.30;8.50;;;13.80;99.90;;;;;;5024779;28;20495;-48
2023/07/27 05:02:50;;;;;;;11.48;8.40;;;13.70;99.90;;;;;;5026213;28;20053;-47
2023/07/27 05:05:16;;;;;;;11.20;7.55;;;13.70;99.90;;;;;;5027053;28;20045;-47
2023/07/27 05:07:42;;;;;;;13.15;8.57;;;13.80;99.90;;;;;;5025775;28;20053;-46
2023/07/27 05:10:07;;;;;;;12.05;8.18;;;13.70;99.90;;;;;;5025712;28;20420;-46
2023/07/27 05:12:33;;;;;;;10.48;8.23;;;13.70;99.90;;;;;;5026075;28;20045;-46
2023/07/27 05:15:01;;;;;;;11.13;8.30;;;13.70;99.90;;;;;;5032075;28;20049;-48
2023/07/27 05:17:27;;;;;;;10.45;8.60;;;13.70;99.90;;;;;;5030237;28;20080;-46
2023/07/27 05:19:57;;;;;;;11.73;9.00;;;13.80;99.90;;;;;;5026296;28;20319;-47
2023/07/27 05:22:22;;;;;;;10.75;8.30;;;13.60;99.90;;;;;;5025529;28;20053;-47
2023/07/27 05:24:48;;;;;;;11.63;8.43;;;13.60;99.90;;;;;;5025689;28;20345;-50
2023/07/27 05:27:13;;;;;;;11.15;8.30;;;13.60;99.90;;;;;;5025635;28;20120;-47
2023/07/27 05:29:39;;;;;;;11.63;7.85;;;13.60;99.90;;;;;;5024648;28;20666;-46
2023/07/27 05:32:05;;;;;;;13.15;8.60;;;13.70;99.90;;;;;;5025571;28;20487;-48
2023/07/27 05:34:32;;;;;;;12.43;8.38;;;13.60;99.90;;;;;;5025616;28;20511;-46
2023/07/27 05:36:57;;;;;;;11.85;8.40;;;13.70;99.90;;;;;;5025274;28;20041;-46
2023/07/27 05:39:23;;;;;;;14.00;8.40;;;13.70;99.90;;;;;;5028475;28;20044;-47
2023/07/27 05:41:48;;;;;;;10.52;8.25;;;13.60;99.90;;;;;;5035030;28;20643;-45
2023/07/27 05:44:14;;;;;;;11.32;8.48;;;13.60;99.90;;;;;;5024444;28;20085;-46
2023/07/27 05:46:39;;;;;;;12.07;8.27;;;13.90;99.90;;;;;;5025196;28;20131;-46
2023/07/27 05:49:05;;;;;;;321.25;217.45;;;13.60;99.90;;;;;;5025010;28;20049;-47
2023/07/27 05:51:31;;;;;;;10.23;7.90;;;13.60;99.90;;;;;;5025386;28;20425;-48
2023/07/27 05:53:56;;;;;;;11.95;8.15;;;13.60;99.90;;;;;;5026010;28;20132;-48
2023/07/27 05:56:22;;;;;;;11.50;8.40;;;13.60;99.90;;;;;;5024570;28;20385;-46
2023/07/27 05:58:48;;;;;;;14.32;8.32;;;13.70;99.90;;;;;;5024944;28;20041;-48
2023/07/27 06:01:16;;;;;;;;;;;13.80;99.90;;;;;;5025908;28;20045;-46
2023/07/27 06:03:41;;;;;;;;;;;13.70;99.90;;;;;;5023739;28;25147;-46
2023/07/27 06:06:07;;;;;;;;;;;13.80;99.90;;;;;;5023384;28;25068;-47
2023/07/27 06:08:33;;;;;;;;;;;13.90;99.90;;;;;;5024719;28;25069;-46
2023/07/27 06:11:04;;;;;;;;;;;15.10;99.90;;;;;;5024496;28;20011;-48
2023/07/27 06:13:30;;;;;;;;;;;13.90;99.90;;;;;;5038358;28;19937;-46
2023/07/27 06:15:55;;;;;;;;;;;14.00;99.90;;;;;;5038844;28;19926;-49
2023/07/27 06:18:21;;;;;;;;;;;14.00;99.90;;;;;;5026822;28;25076;-46
2023/07/27 06:20:46;;;;;;;;;;;14.10;99.90;;;;;;5027569;28;24965;-48
2023/07/27 06:23:12;;;;;;;;;;;14.20;99.90;;;;;;5027457;28;25075;-47
2023/07/27 06:25:41;;;;;;;;;;;14.10;99.90;;;;;;5029363;28;25067;-46
2023/07/27 06:28:07;;;;;;;;;;;14.20;99.90;;;;;;5036107;28;25072;-47
2023/07/27 06:30:34;;;;;;;;;;;14.20;99.90;;;;;;5029228;28;25073;-46
2023/07/27 06:33:00;;;;;;;;;;;14.20;99.90;;;;;;5027283;28;25054;-46
2023/07/27 06:35:25;;;;;;;;;;;14.30;99.90;;;;;;5027228;28;25060;-45
2023/07/27 06:37:51;;;;;;;;;;;14.40;99.90;;;;;;5027005;28;25117;-46
2023/07/27 06:40:17;;;;;;;;;;;14.70;99.90;;;;;;5027089;28;25146;-46
2023/07/27 06:42:42;;;;;;;;;;;14.90;99.90;;;;;;5026825;28;25067;-46
2023/07/27 06:45:08;;;;;;;12.38;9.23;;;14.70;99.90;;;;;;5028016;28;20303;-47
2023/07/27 06:47:34;;;;;;;11.52;9.27;;;14.60;99.90;;;;;;5027145;28;20487;-48
2023/07/27 06:49:59;;;;;;;13.30;9.25;;;14.60;99.90;;;;;;5029162;28;20046;-49
2023/07/27 06:52:25;;;;;;;12.55;9.45;;;14.70;99.90;;;;;;5042129;28;20538;-46
2023/07/27 06:54:51;;;;;;;11.02;8.52;;;14.80;99.90;;;;;;5048448;28;20467;-46
2023/07/27 06:57:16;;;;;;;11.25;8.57;;;14.80;99.90;;;;;;5048208;28;20037;-46
2023/07/27 06:59:42;;;;;;;14.85;9.88;;;14.90;99.90;;;;;;5047940;28;20112;-46
2023/07/27 07:02:08;;;;;;;13.30;9.15;;;14.70;99.90;;;;;;5037398;28;20503;-46
2023/07/27 07:04:33;;;;;;;14.15;9.45;;;14.80;99.90;;;;;;5027602;28;20136;-49
2023/07/27 07:06:59;;;;;;;12.23;8.95;;;14.90;99.90;;;;;;5028676;28;20049;-46
2023/07/27 07:09:25;;;;;;;10.60;8.88;;;14.90;99.90;;;;;;5048311;28;20067;-46
2023/07/27 07:11:51;;;;;;;11.90;9.35;;;15.00;99.90;;;;;;5048345;28;20049;-48
2023/07/27 07:14:16;;;;;;;14.15;9.13;;;14.90;99.90;;;;;;5042574;28;20040;-46
2023/07/27 07:16:42;;;;;;;14.18;9.68;;;15.00;99.90;;;;;;5036930;28;20049;-48
2023/07/27 07:19:08;;;;;;;13.00;9.57;;;15.10;99.90;;;;;;5028032;28;20042;-47
2023/07/27 07:21:33;;;;;;;11.45;8.95;;;15.10;99.90;;;;;;5026258;28;20072;-47
2023/07/27 07:23:59;;;;;;;10.80;7.70;;;15.10;99.90;;;;;;5027991;28;20052;-49
2023/07/27 07:26:24;;;;;;;11.88;9.07;;;15.00;99.90;;;;;;5041037;28;20033;-49
2023/07/27 07:28:50;;;;;;;13.15;8.75;;;15.10;99.90;;;;;;5046667;28;20491;-47
2023/07/27 07:31:16;;;;;;;12.55;8.75;;;15.00;99.90;;;;;;5047585;28;20045;-49
2023/07/27 07:33:41;;;;;;;12.38;9.00;;;15.20;99.90;;;;;;5047863;28;20052;-48
2023/07/27 07:36:07;;;;;;;13.32;9.30;;;15.10;99.90;;;;;;5036304;28;20048;-49
2023/07/27 07:38:33;;;;;;;14.88;9.70;;;15.10;99.90;;;;;;5027357;28;20080;-46
2023/07/27 07:40:58;;;;;;;13.82;9.40;;;15.00;99.90;;;;;;5035619;28;20480;-49
2023/07/27 07:43:24;;;;;;;10.68;8.95;;;15.00;99.90;;;;;;5032358;28;20072;-47
2023/07/27 07:45:49;;;;;;;12.55;8.85;;;15.00;99.90;;;;;;5046407;28;20158;-48
2023/07/27 07:48:15;;;;;;;12.20;8.50;;;15.10;99.90;;;;;;5027680;28;20378;-49
2023/07/27 07:50:41;;;;;;;11.20;8.77;;;15.00;99.90;;;;;;5036239;28;20052;-47
2023/07/27 07:53:06;;;;;;;11.10;8.95;;;15.00;99.90;;;;;;5027354;28;20045;-50
2023/07/27 07:55:38;;;;;;;13.50;8.32;;;15.10;99.90;;;;;;5027527;28;20045;-47
2023/07/27 07:58:04;;;;;;;9.50;7.93;;;15.10;99.90;;;;;;5027460;28;20049;-47
2023/07/27 08:00:29;;;;;;;10.05;7.90;;;15.10;99.90;;;;;;5027426;28;20037;-48
2023/07/27 08:02:55;;;;;;;10.30;7.70;;;15.20;99.90;;;;;;5027387;28;20052;-47
2023/07/27 08:05:20;;;;;;;11.57;8.15;;;15.20;99.90;;;;;;5009884;28;20081;-49
2023/07/27 08:07:46;;;;;;;9.48;7.63;;;15.20;99.90;;;;;;5027331;28;20041;-48
2023/07/27 08:10:12;;;;;;;9.55;7.88;;;15.30;99.90;;;;;;5026495;28;20129;-46
2023/07/27 08:12:38;;;;;;;8.23;6.93;;;15.50;99.90;;;;;;5026989;28;20396;-47
2023/07/27 08:15:05;;;;;;;8.80;7.20;;;15.50;99.90;;;;;;5033709;28;20135;-46
2023/07/27 08:17:30;;;;;;;10.20;7.22;;;15.50;99.90;;;;;;5030298;28;20045;-48
2023/07/27 08:19:56;;;;;;;8.00;6.00;;;15.50;99.90;;;;;;5034440;28;20064;-46
2023/07/27 08:22:22;;;;;;;7.93;6.57;;;15.60;99.90;;;;;;5044450;28;20187;-46
2023/07/27 08:24:47;;;;;;;7.85;6.45;;;15.60;99.90;;;;;;5046881;28;20052;-47
2023/07/27 08:27:13;;;;;;;6.22;5.20;;;15.70;99.90;;;;;;5046218;28;20055;-46
2023/07/27 08:29:39;;;;;;;8.95;5.70;;;15.70;99.90;;;;;;5046148;28;20044;-49
2023/07/27 08:32:05;;;;;;;6.53;5.75;;;15.60;99.90;;;;;;5046879;28;20596;-46
2023/07/27 08:34:31;;;;;;;7.22;5.70;;;15.60;99.90;;;;;;5045618;28;20037;-48
2023/07/27 08:36:56;;;;;;;8.30;5.97;;;15.70;99.90;;;;;;5046629;28;20064;-46
2023/07/27 08:39:22;;;;;;;6.38;5.30;;;15.60;99.90;;;;;;5046559;28;20127;-47
2023/07/27 08:41:48;;;;;;;6.45;5.78;;;15.60;99.90;;;;;;5046476;28;20052;-49
2023/07/27 08:44:14;;;;;;;6.82;6.13;;;15.70;99.90;;;;;;5043923;28;20072;-46
2023/07/27 08:46:41;;;;;;;6.68;6.03;;;15.60;99.90;;;;;;5046096;28;20055;-47
2023/07/27 08:49:12;;;;;;;7.00;6.30;;;15.60;99.90;;;;;;5030480;28;20049;-46
2023/07/27 08:51:39;;;;;;;7.53;6.82;;;15.60;99.90;;;;;;5025900;28;20580;-46
2023/07/27 08:54:05;;;;;;;7.90;6.78;;;15.60;99.90;;;;;;5026853;28;20091;-47
2023/07/27 08:56:31;;;;;;;7.60;6.80;;;15.60;99.90;;;;;;5025301;28;20041;-52
2023/07/27 08:58:57;;;;;;;8.52;7.60;;;15.60;99.90;;;;;;5024170;28;20053;-47
2023/07/27 09:01:23;;;;;;;7.13;6.03;;;15.60;99.90;;;;;;5025250;28;20125;-51
2023/07/27 09:03:49;;;;;;;6.70;5.97;;;15.80;99.90;;;;;;5025331;28;20951;-46
2023/07/27 09:06:14;;;;;;;6.80;6.10;;;15.80;99.90;;;;;;5025607;28;20060;-46
2023/07/27 09:08:41;;;;;;;7.57;6.85;;;15.70;99.90;;;;;;5024258;28;20049;-46
2023/07/27 09:11:08;;;;;;;7.00;6.22;;;15.70;99.90;;;;;;5025619;28;20038;-46
2023/07/27 09:13:34;;;;;;;8.10;6.78;;;15.80;99.90;;;;;;5025366;28;20053;-45
2023/07/27 09:16:06;;;;;;;8.05;7.25;;;15.60;99.90;;;;;;5037116;28;20069;-45
2023/07/27 09:18:35;;;;;;;8.10;6.82;;;15.70;99.90;;;;;;5025973;28;20136;-52
2023/07/27 09:21:09;;;;;;;7.03;6.32;;;15.70;99.90;;;;;;5026261;28;20124;-45
2023/07/27 09:23:36;;;;;;;7.13;6.50;;;15.70;99.90;;;;;;5025474;28;20544;-46
2023/07/27 09:26:01;;;;;;;7.72;6.50;;;15.60;99.90;;;;;;5026582;28;20048;-47
2023/07/27 09:28:28;;;;;;;7.53;6.75;;;15.60;99.90;;;;;;5025241;28;20038;-48
2023/07/27 09:30:59;;;;;;;6.85;6.18;;;15.60;99.90;;;;;;5025918;28;20054;-48
2023/07/27 09:33:25;;;;;;;7.20;6.43;;;15.70;99.90;;;;;;5026387;28;20095;-51
2023/07/27 09:35:51;;;;;;;8.70;6.07;;;15.70;99.90;;;;;;5026565;28;20080;-45
2023/07/27 09:38:26;;;;;;;7.18;6.47;;;15.70;99.90;;;;;;5025754;28;20081;-48
2023/07/27 09:40:52;;;;;;;6.97;6.00;;;15.80;99.90;;;;;;5025801;28;20041;-47
2023/07/27 09:43:21;;;;;;;7.85;6.53;;;15.90;99.90;;;;;;5024793;28;20054;-46
2023/07/27 09:45:46;;;;;;;7.00;6.28;;;15.70;99.90;;;;;;5024962;28;20062;-45
2023/07/27 09:48:12;;;;;;;6.30;5.70;;;15.80;99.90;;;;;;5029404;28;20570;-45
2023/07/27 09:50:40;;;;;;;6.22;5.57;;;15.80;99.90;;;;;;5029583;28;20096;-47
2023/07/27 09:53:07;;;;;;;6.55;5.78;;;15.90;99.90;;;;;;5028940;28;20132;-45
2023/07/27 09:55:34;;;;;;;6.20;5.57;;;15.90;99.90;;;;;;5030026;28;20428;-48
2023/07/27 09:58:00;;;;;;;6.63;5.35;;;15.80;99.90;;;;;;5029130;28;20053;-45
2023/07/27 10:00:26;;;;;;;6.13;5.53;;;15.90;99.90;;;;;;5029047;28;20075;-45
2023/07/27 10:02:51;;;;;;;6.18;5.57;;;16.10;99.90;;;;;;5038239;28;20059;-46
2023/07/27 10:05:18;;;;;;;5.80;5.20;;;16.00;99.90;;;;;;5043977;28;20119;-47
2023/07/27 10:07:44;;;;;;;5.22;4.60;;;16.20;99.90;;;;;;5049255;28;20490;-45
2023/07/27 10:10:26;;;;;;;4.95;4.45;;;16.20;99.90;;;;;;5040286;28;20045;-48
2023/07/27 10:12:55;;;;;;;5.82;5.25;;;16.20;99.90;;;;;;5027508;28;20041;-47
2023/07/27 10:15:25;;;;;;;4.82;4.28;;;16.20;99.90;;;;;;5038953;28;20139;-49
2023/07/27 10:17:55;;;;;;;6.78;5.00;;;16.30;99.90;;;;;;5029683;28;20045;-46
2023/07/27 10:20:32;;;;;;;5.43;4.65;;;16.20;99.90;;;;;;5028827;28;20046;-46
2023/07/27 10:23:25;;;;;;;5.35;4.85;;;16.50;99.90;;;;;;5028246;28;20128;-46
2023/07/27 10:25:56;;;;;;;5.35;4.85;;;16.30;99.90;;;;;;5047315;28;20237;-45
2023/07/27 10:28:42;;;;;;;5.20;4.47;;;16.20;99.90;;;;;;5047338;28;21632;-45
2023/07/27 10:31:24;;;;;;;4.80;4.30;;;16.20;99.90;;;;;;5048913;28;20055;-45
2023/07/27 10:33:56;;;;;;;5.13;4.40;;;16.20;99.90;;;;;;5049205;28;20053;-46
2023/07/27 10:36:26;;;;;;;4.18;3.78;;;16.10;99.90;;;;;;5049134;28;20458;-46
2023/07/27 10:38:56;;;;;;;5.18;4.13;;;16.20;99.90;;;;;;5041310;28;20036;-45
2023/07/27 10:41:24;;;;;;;4.20;3.80;;;16.30;99.90;;;;;;5048776;28;20041;-47
2023/07/27 10:44:08;;;;;;;4.53;4.13;;;16.30;99.90;;;;;;5038441;28;20041;-45
2023/07/27 10:46:46;;;;;;;3.80;3.40;;;16.40;99.90;;;;;;5029071;28;20049;-45
2023/07/27 10:49:15;;;;;;;3.47;3.15;;;16.40;99.90;;;;;;5036413;28;20041;-54
2023/07/27 10:51:42;;;;;;;3.45;3.15;;;16.40;99.90;;;;;;5035514;28;20579;-46
2023/07/27 10:54:11;;;;;;;4.57;3.38;;;16.30;99.90;;;;;;5026995;28;20496;-44
2023/07/27 10:56:37;;;;;;;4.97;3.08;;;16.30;99.90;;;;;;5042645;28;20541;-47
2023/07/27 10:59:03;;;;;;;3.40;2.85;;;16.30;99.90;;;;;;5047277;28;20040;-45
2023/07/27 11:01:33;;;;;;;3.42;3.10;;;16.40;99.90;;;;;;5048430;28;20048;-47
2023/07/27 11:03:59;;;;;;;3.58;2.80;;;16.40;99.90;;;;;;5047841;28;20128;-44
2023/07/27 11:06:28;;;;;;;4.05;2.78;;;16.40;99.90;;;;;;5047749;28;20112;-46
2023/07/27 11:08:55;;;;;;;3.90;2.75;;;16.30;99.90;;;;;;5047874;28;20041;-44
2023/07/27 11:11:23;;;;;;;3.35;2.80;;;16.40;99.90;;;;;;5047816;28;20049;-45
2023/07/27 11:13:50;;;;;;;4.05;2.92;;;16.30;99.90;;;;;;5045356;28;20056;-46
2023/07/27 11:16:16;;;;;;;3.28;2.72;;;16.40;99.90;;;;;;5036767;28;20048;-46
2023/07/27 11:18:43;;;;;;;2.95;2.65;;;16.30;99.90;;;;;;5028393;28;20441;-47
2023/07/27 11:21:09;;;;;;;3.20;2.88;;;16.30;99.90;;;;;;5029705;28;20704;-46
2023/07/27 11:23:43;;;;;;;3.47;3.15;;;16.30;99.90;;;;;;5033477;28;20626;-48
2023/07/27 11:26:09;;;;;;;4.05;3.35;;;16.30;99.90;;;;;;5034837;28;20037;-46
2023/07/27 11:28:35;;;;;;;4.15;3.55;;;16.30;99.90;;;;;;5033124;28;20037;-44
2023/07/27 11:31:00;;;;;;;7.72;3.60;;;16.30;99.90;;;;;;5032689;28;20753;-45
2023/07/27 11:33:33;;;;;;;5.25;4.43;;;16.30;99.90;;;;;;5032647;28;20044;-46
2023/07/27 11:35:59;;;;;;;4.68;4.07;;;16.20;99.90;;;;;;5030869;28;20853;-46
2023/07/27 11:38:25;;;;;;;4.40;4.00;;;16.20;99.90;;;;;;5030991;28;20072;-45
2023/07/27 11:40:54;;;;;;;5.20;4.30;;;16.30;99.90;;;;;;5030491;28;20684;-45
2023/07/27 11:43:20;;;;;;;4.40;4.00;;;16.30;99.90;;;;;;5028814;28;20671;-46
2023/07/27 11:45:47;;;;;;;5.03;4.50;;;16.20;99.90;;;;;;5029650;28;20041;-49
2023/07/27 11:48:13;;;;;;;4.65;4.25;;;16.20;99.90;;;;;;5029406;28;20049;-45
2023/07/27 11:50:39;;;;;;;4.38;3.97;;;16.30;99.90;;;;;;5030593;28;20407;-48
2023/07/27 11:53:09;;;;;;;5.03;4.28;;;16.20;99.90;;;;;;5032305;28;20080;-51
2023/07/27 11:55:36;;;;;;;5.68;5.07;;;16.20;99.90;;;;;;5032297;28;20049;-47
2023/07/27 11:58:08;;;;;;;6.00;5.40;;;16.30;99.90;;;;;;5031650;28;20045;-47
2023/07/27 12:00:36;;;;;;;5.75;5.25;;;16.20;99.90;;;;;;5032021;28;20048;-45
2023/07/27 12:03:03;;;;;;;6.13;5.55;;;16.40;99.90;;;;;;5032670;28;20049;-45
2023/07/27 12:05:32;;;;;;;5.90;5.38;;;16.30;99.90;;;;;;5032610;28;20094;-46
2023/07/27 12:07:58;;;;;;;7.18;6.47;;;16.40;99.90;;;;;;5032465;28;20471;-45
2023/07/27 12:10:24;;;;;;;7.00;6.40;;;16.40;99.90;;;;;;5031452;28;20037;-46
2023/07/27 12:12:54;;;;;;;7.00;6.40;;;16.50;99.90;;;;;;5031899;28;20037;-47
2023/07/27 12:15:31;;;;;;;5.65;5.15;;;16.70;99.90;;;;;;5031378;28;20053;-45
2023/07/27 12:18:02;;;;;;;6.03;5.53;;;16.80;99.90;;;;;;5032997;28;20051;-45
2023/07/27 12:20:30;;;;;;;5.57;5.07;;;16.70;99.90;;;;;;5032841;28;20069;-44
2023/07/27 12:22:56;;;;;;;5.80;5.30;;;16.80;99.90;;;;;;5031673;28;20475;-45
2023/07/27 12:25:22;;;;;;;5.60;5.07;;;17.00;99.90;;;;;;5031909;28;20040;-46
2023/07/27 12:27:47;;;;;;;5.30;4.57;;;16.90;99.90;;;;;;5031543;28;20040;-45
2023/07/27 12:30:14;;;;;;;4.93;4.53;;;17.00;99.90;;;;;;5031435;28;20041;-50
2023/07/27 12:32:40;;;;;;;5.10;4.70;;;17.10;99.90;;;;;;5031824;28;20110;-47
2023/07/27 12:35:06;;;;;;;5.30;4.80;;;17.00;99.90;;;;;;5031684;28;20561;-45
2023/07/27 12:37:32;;;;;;;4.72;4.32;;;17.00;99.90;;;;;;5029485;28;20050;-48
2023/07/27 12:39:58;;;;;;;4.93;4.35;;;17.10;99.90;;;;;;5030060;28;20484;-46
2023/07/27 12:42:24;;;;;;;4.60;4.20;;;17.20;99.90;;;;;;5029675;28;20049;-46
2023/07/27 12:44:50;;;;;;;4.75;4.35;;;17.00;99.90;;;;;;5030626;28;20076;-47
2023/07/27 12:47:15;;;;;;;5.35;4.55;;;17.10;99.90;;;;;;5029724;28;20486;-46